Time;durP1;ratioP1;P1;durP2;ratioP2;P2;SDS_P1;SDS_P2;PMS_P1;PMS_P2;Temp;Humidity;BMP_temperature;BMP_pressure;BME280_temperature;BME280_humidity;BME280_pressure;Samples;Min_cycle;Max_cycle;Signal;HPM_P1;HPM_P2
2021/05/01 00:03:01;;;;;;;17.27;15.60;;;;;;;11.60;58.90;97588.09;8400009;28;20544;-67
2021/05/01 00:07:05;;;;;;;16.40;14.93;;;;;;;11.62;58.55;97591.44;8399165;28;20255;-69
2021/05/01 00:11:07;;;;;;;16.53;15.03;;;;;;;11.62;58.62;97597.44;8398527;28;20206;-68
2021/05/01 00:15:12;;;;;;;17.13;15.63;;;;;;;11.56;58.59;97587.41;8399136;28;20235;-68
2021/05/01 00:19:14;;;;;;;17.53;15.77;;;;;;;11.52;58.81;97568.59;8399534;28;20203;-68
2021/05/01 00:23:17;;;;;;;17.40;15.80;;;;;;;11.59;58.86;97555.28;8398563;28;20233;-68
2021/05/01 00:27:19;;;;;;;17.30;15.80;;;;;;;11.40;59.34;97556.28;8398613;28;20238;-69
2021/05/01 00:31:21;;;;;;;17.47;15.93;;;;;;;11.48;59.01;97556.72;8396399;28;20687;-69
2021/05/01 00:35:23;;;;;;;18.53;16.80;;;;;;;11.48;58.83;97553.25;8398143;28;20210;-68
2021/05/01 00:39:26;;;;;;;17.63;16.03;;;;;;;11.48;59.19;97541.16;8398091;28;20218;-69
2021/05/01 00:43:28;;;;;;;17.90;16.20;;;;;;;11.44;59.17;97546.56;8398576;28;20237;-68
2021/05/01 00:47:29;;;;;;;18.50;16.80;;;;;;;11.52;58.72;97545.25;8398133;28;20233;-68
2021/05/01 00:51:32;;;;;;;18.20;16.50;;;;;;;11.46;58.65;97540.41;8397125;28;20210;-68
2021/05/01 00:55:35;;;;;;;18.93;17.23;;;;;;;11.28;59.14;97537.03;8387098;28;20219;-68
2021/05/01 00:59:37;;;;;;;18.33;16.57;;;;;;;11.37;58.66;97519.34;8396641;28;20278;-68
2021/05/01 01:03:40;;;;;;;18.57;16.87;;;;;;;11.34;59.06;97510.78;8398587;28;20636;-68
2021/05/01 01:07:42;;;;;;;17.80;16.20;;;;;;;11.25;58.99;97520.81;8385656;28;20223;-68
2021/05/01 01:11:44;;;;;;;18.43;16.63;;;;;;;11.31;59.15;97516.16;8363296;28;20200;-68
2021/05/01 01:15:46;;;;;;;19.13;17.40;;;;;;;11.30;59.38;97531.78;8363277;28;20220;-68
2021/05/01 01:19:48;;;;;;;19.10;17.30;;;;;;;11.39;58.80;97528.69;8363198;28;20520;-68
2021/05/01 01:23:51;;;;;;;17.43;15.83;;;;;;;11.44;58.95;97521.50;8362956;28;20218;-68
2021/05/01 01:27:53;;;;;;;17.03;15.60;;;;;;;11.47;58.65;97528.28;8363328;28;20323;-68
2021/05/01 01:31:55;;;;;;;19.03;17.27;;;;;;;11.40;59.02;97527.75;8363612;28;20239;-68
2021/05/01 01:35:57;;;;;;;17.73;16.13;;;;;;;11.42;59.42;97525.09;8363190;28;20203;-68
2021/05/01 01:39:59;;;;;;;17.10;15.70;;;;;;;11.37;59.58;97537.47;8376022;28;20209;-68
2021/05/01 01:44:02;;;;;;;17.53;15.83;;;;;;;11.39;58.97;97526.09;8393044;28;20195;-68
2021/05/01 01:48:04;;;;;;;17.80;16.20;;;;;;;11.50;58.34;97525.53;8394738;28;20222;-68
2021/05/01 01:52:07;;;;;;;18.30;16.63;;;;;;;11.44;58.79;97529.28;8395551;28;20647;-68
2021/05/01 01:56:09;;;;;;;18.73;17.03;;;;;;;11.36;59.29;97528.84;8394817;28;20207;-68
2021/05/01 02:00:17;;;;;;;18.23;16.43;;;;;;;11.48;59.07;97529.91;8395146;28;20218;-68
2021/05/01 02:04:19;;;;;;;18.27;16.47;;;;;;;11.43;59.93;97544.91;8394525;28;20599;-68
2021/05/01 02:08:21;;;;;;;19.07;17.17;;;;;;;11.47;58.59;97538.63;8394182;28;20588;-68
2021/05/01 02:12:24;;;;;;;18.03;16.43;;;;;;;11.45;58.47;97543.91;8394732;28;20280;-68
2021/05/01 02:16:26;;;;;;;18.40;16.70;;;;;;;11.47;59.09;97534.28;8394312;28;20226;-69
2021/05/01 02:20:30;;;;;;;19.00;17.40;;;;;;;11.46;58.78;97540.41;8394609;28;20203;-68
2021/05/01 02:24:32;;;;;;;18.33;16.70;;;;;;;11.49;58.15;97529.03;8394656;28;20622;-68
2021/05/01 02:28:34;;;;;;;17.33;15.77;;;;;;;11.53;57.95;97522.75;8394052;28;20226;-68
2021/05/01 02:32:36;;;;;;;18.20;16.50;;;;;;;11.46;58.06;97521.41;8394509;28;20227;-68
2021/05/01 02:36:38;;;;;;;17.93;16.33;;;;;;;11.45;58.07;97525.75;8394214;28;20511;-68
2021/05/01 02:40:40;;;;;;;17.83;16.23;;;;;;;11.51;58.21;97528.00;8394015;28;20537;-68
2021/05/01 02:44:43;;;;;;;18.33;16.70;;;;;;;11.45;58.18;97535.28;8394427;28;20194;-68
2021/05/01 02:48:45;;;;;;;18.93;16.97;;;;;;;11.42;58.76;97532.88;8394027;28;20720;-68
2021/05/01 02:52:47;;;;;;;18.57;16.77;;;;;;;11.44;59.12;97521.50;8393880;28;20203;-68
2021/05/01 02:56:49;;;;;;;17.77;16.17;;;;;;;11.43;58.52;97516.41;8393505;28;20207;-68
2021/05/01 03:00:53;;;;;;;18.50;16.80;;;;;;;11.42;58.10;97517.31;8393720;28;20199;-68
2021/05/01 03:04:55;;;;;;;17.87;16.23;;;;;;;11.44;58.78;97505.94;8393446;28;20611;-68
2021/05/01 03:08:57;;;;;;;17.50;16.00;;;;;;;11.38;58.61;97511.44;8393576;28;20222;-68
2021/05/01 03:12:59;;;;;;;17.77;16.10;;;;;;;11.40;58.56;97516.56;8393841;28;20211;-67
2021/05/01 03:17:02;;;;;;;18.60;16.90;;;;;;;11.34;58.99;97515.97;8393242;28;20227;-67
2021/05/01 03:21:05;;;;;;;17.83;16.23;;;;;;;11.40;58.70;97509.59;8397048;28;20671;-67
2021/05/01 03:25:08;;;;;;;17.70;16.13;;;;;;;11.40;58.08;97504.41;8399819;28;20627;-68
2021/05/01 03:29:10;;;;;;;17.70;16.00;;;;;;;11.38;58.37;97500.25;8399313;28;20203;-68
2021/05/01 03:33:14;;;;;;;18.83;16.93;;;;;;;11.34;58.43;97496.97;8399468;28;20269;-68
2021/05/01 03:37:16;;;;;;;17.50;15.90;;;;;;;11.40;58.19;97488.03;8399412;28;20238;-68
2021/05/01 03:41:18;;;;;;;19.00;17.20;;;;;;;11.37;58.24;97496.84;8398806;28;20195;-68
2021/05/01 03:45:20;;;;;;;17.40;15.80;;;;;;;11.40;58.64;97498.41;8399029;28;20493;-68
2021/05/01 03:49:23;;;;;;;17.80;16.13;;;;;;;11.40;58.48;97503.59;8398784;28;20229;-68
2021/05/01 03:53:25;;;;;;;18.47;16.77;;;;;;;11.31;58.60;97499.75;8399098;28;20202;-68
2021/05/01 03:57:27;;;;;;;17.77;16.20;;;;;;;11.34;58.83;97499.56;8398801;28;20211;-68
2021/05/01 04:01:29;;;;;;;18.13;16.43;;;;;;;11.38;59.04;97489.88;8398659;28;20302;-68
2021/05/01 04:05:32;;;;;;;19.13;17.37;;;;;;;11.29;58.43;97483.44;8398806;28;20196;-68
2021/05/01 04:09:34;;;;;;;18.80;17.00;;;;;;;11.31;58.62;97484.22;8398317;28;20210;-68
2021/05/01 04:13:40;;;;;;;18.17;16.47;;;;;;;11.43;58.51;97475.75;8398658;28;20206;-68
2021/05/01 04:17:43;;;;;;;19.03;17.23;;;;;;;11.34;58.85;97478.84;8397839;28;20230;-68
2021/05/01 04:21:45;;;;;;;18.33;16.63;;;;;;;11.34;58.45;97476.25;8397687;28;20195;-68
2021/05/01 04:25:47;;;;;;;20.23;18.23;;;;;;;11.35;58.23;97475.34;8391285;28;20222;-68
2021/05/01 04:29:51;;;;;;;21.20;17.57;;;;;;;11.39;58.50;97494.97;8380289;28;20196;-68
2021/05/01 04:33:53;;;;;;;19.03;17.30;;;;;;;11.46;58.16;97501.50;8384986;28;20690;-69
2021/05/01 04:37:56;;;;;;;19.83;17.83;;;;;;;11.50;57.95;97492.63;8397785;28;20199;-68
2021/05/01 04:41:58;;;;;;;18.33;16.53;;;;;;;11.51;58.17;97489.09;8387816;28;20517;-68
2021/05/01 04:46:00;;;;;;;19.77;17.73;;;;;;;11.54;57.80;97495.91;8377245;28;20227;-68
2021/05/01 04:50:02;;;;;;;19.60;17.80;;;;;;;11.51;58.16;97496.06;8383644;28;20221;-68
2021/05/01 04:54:05;;;;;;;19.77;17.77;;;;;;;11.47;57.42;97510.13;8379311;28;20207;-68
2021/05/01 04:58:07;;;;;;;19.30;17.50;;;;;;;11.47;57.39;97504.94;8363947;28;20203;-68
2021/05/01 05:02:09;;;;;;;20.20;18.27;;;;;;;11.29;57.83;97506.75;8363908;28;20203;-68
2021/05/01 05:06:11;;;;;;;19.30;17.43;;;;;;;11.38;57.66;97510.63;8365132;28;20219;-68
2021/05/01 05:10:15;;;;;;;19.67;17.73;;;;;;;11.45;57.43;97506.78;8364372;28;20211;-68
2021/05/01 05:14:17;;;;;;;20.67;18.67;;;;;;;11.52;57.04;97508.94;8365111;28;20200;-68
2021/05/01 05:18:19;;;;;;;20.73;18.73;;;;;;;11.58;57.64;97519.91;8364303;28;20200;-68
2021/05/01 05:22:21;;;;;;;21.60;19.43;;;;;;;11.87;57.36;97520.84;8377614;28;20206;-68
2021/05/01 05:26:24;;;;;;;20.10;18.10;;;;;;;11.82;57.18;97512.50;8396784;28;20219;-68
2021/05/01 05:30:26;;;;;;;20.27;18.23;;;;;;;12.12;57.07;97497.78;8396977;28;20592;-68
2021/05/01 05:34:28;;;;;;;21.87;19.77;;;;;;;12.13;56.69;97499.47;8396350;28;20203;-68
2021/05/01 05:38:30;;;;;;;21.87;19.87;;;;;;;12.22;55.44;97485.13;8396677;28;20195;-68
2021/05/01 05:42:33;;;;;;;20.70;18.57;;;;;;;12.32;55.42;97482.81;8396695;28;20199;-68
2021/05/01 05:46:35;;;;;;;24.87;20.03;;;;;;;12.30;55.05;97493.28;8397434;28;20222;-68
2021/05/01 05:50:37;;;;;;;22.07;20.00;;;;;;;12.43;55.24;97484.75;8394171;28;20628;-68
2021/05/01 05:54:40;;;;;;;22.00;20.00;;;;;;;12.61;54.42;97483.69;8396564;28;20199;-68
2021/05/01 05:58:42;;;;;;;21.53;19.53;;;;;;;12.76;54.33;97492.31;8396364;28;20203;-68
2021/05/01 06:02:44;;;;;;;23.80;21.20;;;;;;;12.92;54.24;97492.19;8396507;28;20212;-68
2021/05/01 06:07:01;;;;;;;24.63;22.23;;;;;;;12.95;54.69;97499.00;8397292;28;20633;-68
2021/05/01 06:11:04;;;;;;;22.03;19.73;;;;;;;13.21;53.67;97489.56;8397271;28;20639;-68
2021/05/01 06:15:09;;;;;;;21.07;18.93;;;;;;;13.22;54.03;97499.03;8396596;28;20222;-68
2021/05/01 06:19:11;;;;;;;22.53;20.13;;;;;;;13.20;53.94;97509.53;8396043;28;20615;-68
2021/05/01 06:23:14;;;;;;;22.10;20.10;;;;;;;13.08;53.23;97503.34;8395291;28;20207;-68
2021/05/01 06:27:17;;;;;;;21.73;19.57;;;;;;;13.27;53.74;97502.19;8396109;28;20581;-68
2021/05/01 06:31:20;;;;;;;21.47;19.47;;;;;;;13.04;54.16;97504.47;8395500;28;20238;-69
2021/05/01 06:35:24;;;;;;;19.90;18.07;;;;;;;13.02;53.41;97506.31;8395339;28;20211;-68
2021/05/01 06:39:27;;;;;;;21.80;19.80;;;;;;;13.16;53.50;97489.03;8395291;28;20708;-69
2021/05/01 06:43:39;;;;;;;22.40;18.53;;;;;;;13.12;52.57;97467.59;8396331;28;20283;-69
2021/05/01 06:47:47;;;;;;;23.93;20.40;;;;;;;14.01;51.47;97471.44;8396210;28;20222;-68
2021/05/01 06:51:52;;;;;;;21.70;19.50;;;;;;;14.69;50.37;97493.00;8395633;28;20586;-68
2021/05/01 06:55:54;;;;;;;20.30;18.50;;;;;;;14.95;48.89;97506.84;8399342;28;20211;-68
2021/05/01 06:59:58;;;;;;;20.40;18.43;;;;;;;15.16;49.18;97501.91;8402275;28;20199;-68
2021/05/01 07:04:02;;;;;;;20.83;18.83;;;;;;;15.19;48.78;97471.22;8401145;28;20210;-68
2021/05/01 07:08:05;;;;;;;20.30;18.13;;;;;;;14.94;48.69;97473.88;8401152;28;20231;-68
2021/05/01 07:12:08;;;;;;;21.27;19.17;;;;;;;15.15;48.56;97479.38;8401177;28;20696;-68
2021/05/01 07:16:11;;;;;;;20.73;18.83;;;;;;;14.88;49.34;97484.75;8397874;28;20223;-68
2021/05/01 07:20:15;;;;;;;20.90;18.57;;;;;;;15.67;46.98;97487.84;8399253;28;20225;-69
2021/05/01 07:24:17;;;;;;;20.17;18.27;;;;;;;15.36;47.96;97477.00;8399804;28;20191;-68
2021/05/01 07:28:22;;;;;;;20.20;18.20;;;;;;;15.68;46.73;97485.13;8398984;28;20317;-69
2021/05/01 07:32:24;;;;;;;21.63;19.43;;;;;;;16.37;45.21;97482.66;8398824;28;20242;-69
2021/05/01 07:36:33;;;;;;;21.17;19.27;;;;;;;15.89;46.97;97474.09;8399619;28;20638;-68
2021/05/01 07:40:35;;;;;;;22.93;20.73;;;;;;;15.72;46.75;97468.28;8401178;28;20199;-68
2021/05/01 07:44:39;;;;;;;22.87;20.67;;;;;;;15.76;45.98;97484.59;8400826;28;20619;-68
2021/05/01 07:48:42;;;;;;;22.00;19.93;;;;;;;15.68;47.67;97484.28;8397804;28;20271;-69
2021/05/01 07:52:45;;;;;;;21.37;19.27;;;;;;;15.88;47.19;97480.25;8399521;28;20654;-68
2021/05/01 07:56:47;;;;;;;20.47;18.40;;;;;;;15.68;47.87;97492.13;8399905;28;20207;-68
2021/05/01 08:00:49;;;;;;;20.27;18.23;;;;;;;15.55;47.19;97500.00;8399446;28;20607;-69
2021/05/01 08:04:51;;;;;;;19.90;18.10;;;;;;;15.41;47.82;97486.16;8399295;28;20207;-69
2021/05/01 08:08:55;;;;;;;20.47;18.47;;;;;;;15.21;47.71;97484.13;8400430;28;20222;-69
2021/05/01 08:12:56;;;;;;;22.70;20.50;;;;;;;15.28;49.17;97480.16;8400317;28;20203;-69
2021/05/01 08:16:59;;;;;;;23.80;21.70;;;;;;;16.12;47.00;97477.59;8399512;28;20227;-69
2021/05/01 08:21:01;;;;;;;22.63;20.63;;;;;;;16.41;46.83;97475.41;8399285;28;20199;-69
2021/05/01 08:25:04;;;;;;;22.00;19.80;;;;;;;16.31;46.14;97466.59;8400152;28;20230;-69
2021/05/01 08:29:06;;;;;;;24.20;21.80;;;;;;;16.32;45.27;97471.72;8398614;28;20227;-70
2021/05/01 08:33:08;;;;;;;22.83;20.73;;;;;;;15.67;46.07;97464.34;8399316;28;20227;-69
2021/05/01 08:37:11;;;;;;;20.93;19.03;;;;;;;16.52;46.06;97464.97;8399473;28;20286;-69
2021/05/01 08:41:15;;;;;;;22.20;20.17;;;;;;;16.19;46.07;97469.19;8399059;28;20237;-69
2021/05/01 08:45:20;;;;;;;20.63;18.53;;;;;;;16.63;44.28;97471.16;8398242;28;20199;-70
2021/05/01 08:49:22;;;;;;;21.93;19.93;;;;;;;16.87;44.02;97466.69;8397667;28;20214;-69
2021/05/01 08:53:24;;;;;;;21.37;19.23;;;;;;;17.41;43.66;97478.13;8398483;28;20206;-69
2021/05/01 08:57:28;;;;;;;20.00;18.10;;;;;;;17.70;42.38;97473.16;8398263;28;20203;-69
2021/05/01 09:01:30;;;;;;;20.37;18.63;;;;;;;17.50;41.46;97473.97;8397010;28;20207;-69
2021/05/01 09:05:32;;;;;;;19.37;17.57;;;;;;;17.90;41.94;97460.28;8397819;28;20261;-69
2021/05/01 09:09:39;;;;;;;21.57;19.40;;;;;;;16.66;43.22;97457.84;8398258;28;20219;-69
2021/05/01 09:13:48;;;;;;;21.60;19.60;;;;;;;16.86;43.19;97454.53;8397501;28;20203;-69
2021/05/01 09:17:59;;;;;;;21.40;19.30;;;;;;;16.90;43.82;97450.72;8396400;28;20223;-69
2021/05/01 09:22:02;;;;;;;22.50;20.30;;;;;;;15.66;45.75;97473.13;8397686;28;20194;-69
2021/05/01 09:26:04;;;;;;;20.57;18.63;;;;;;;16.38;45.15;97473.03;8397225;28;20529;-69
2021/05/01 09:30:15;;;;;;;21.03;19.07;;;;;;;16.48;45.58;97483.63;8396179;28;20627;-69
2021/05/01 09:34:16;;;;;;;22.93;20.87;;;;;;;15.59;46.09;97472.72;8397902;28;20250;-70
2021/05/01 09:38:19;;;;;;;23.73;21.53;;;;;;;15.25;47.57;97464.75;8397561;28;20210;-70
2021/05/01 09:42:22;;;;;;;22.37;20.37;;;;;;;16.42;44.34;97456.16;8396748;28;20246;-69
2021/05/01 09:46:25;;;;;;;23.03;20.87;;;;;;;15.69;46.02;97462.44;8396391;28;20219;-69
2021/05/01 09:50:28;;;;;;;22.50;20.40;;;;;;;15.85;47.29;97468.25;8395395;28;20211;-69
2021/05/01 09:54:31;;;;;;;21.50;19.20;;;;;;;15.56;46.84;97457.31;8395878;28;20211;-69
2021/05/01 09:58:33;;;;;;;22.50;20.47;;;;;;;15.75;45.64;97452.44;8395570;28;20207;-69
2021/05/01 10:02:36;;;;;;;20.67;18.73;;;;;;;15.99;45.80;97441.97;8395797;28;20211;-70
2021/05/01 10:06:41;;;;;;;21.80;19.60;;;;;;;15.82;46.13;97452.81;8396463;28;20229;-69
2021/05/01 10:10:43;;;;;;;20.50;18.47;;;;;;;15.23;46.33;97450.94;8397718;28;20245;-70
2021/05/01 10:14:47;;;;;;;17.40;15.67;;;;;;;15.61;47.45;97443.00;8395904;28;20242;-70
2021/05/01 10:19:08;;;;;;;16.57;14.93;;;;;;;16.46;44.05;97462.00;8394878;28;20214;-69
2021/05/01 10:23:11;;;;;;;16.00;14.07;;;;;;;16.79;45.27;97453.31;8397018;28;20191;-73
2021/05/01 10:27:13;;;;;;;16.03;14.37;;;;;;;17.39;42.31;97452.09;8395658;28;20318;-75
2021/05/01 10:31:18;;;;;;;15.83;14.23;;;;;;;17.09;42.91;97444.06;8395188;28;20235;-75
2021/05/01 10:35:22;;;;;;;16.90;14.83;;;;;;;16.98;43.00;97444.91;8395298;28;20218;-76
2021/05/01 10:39:24;;;;;;;14.00;12.50;;;;;;;17.74;41.40;97431.84;8395486;28;20277;-75
2021/05/01 10:43:28;;;;;;;17.90;14.33;;;;;;;17.57;42.29;97418.38;8396193;28;20333;-76
2021/05/01 10:47:30;;;;;;;13.07;11.70;;;;;;;17.90;40.86;97411.34;8397259;28;20230;-72
2021/05/01 10:51:50;;;;;;;16.57;15.17;;;;;;;17.24;41.87;97400.16;8396109;28;20560;-65
2021/05/01 10:55:54;;;;;;;15.37;13.77;;;;;;;18.29;41.11;97389.75;8396528;28;20615;-65
2021/05/01 10:59:58;;;;;;;16.27;14.67;;;;;;;18.22;39.64;97379.00;8395931;28;20635;-65
2021/05/01 11:04:02;;;;;;;15.93;13.73;;;;;;;18.60;39.98;97374.88;8395726;28;20531;-64
2021/05/01 11:08:21;;;;;;;13.83;12.63;;;;;;;18.65;38.24;97372.66;8395867;28;20269;-64
2021/05/01 11:12:24;;;;;;;14.37;13.17;;;;;;;18.19;38.82;97378.41;8395733;28;20579;-64
2021/05/01 11:16:31;;;;;;;14.63;13.30;;;;;;;18.26;39.55;97376.91;8396000;28;20231;-64
2021/05/01 11:20:34;;;;;;;13.97;12.70;;;;;;;17.85;40.21;97387.31;8395558;28;20596;-64
2021/05/01 11:24:37;;;;;;;15.17;13.67;;;;;;;17.47;41.98;97386.03;8395019;28;20206;-64
2021/05/01 11:28:39;;;;;;;14.53;13.23;;;;;;;17.47;39.96;97377.34;8394328;28;20230;-64
2021/05/01 11:32:41;;;;;;;12.77;11.67;;;;;;;17.89;40.95;97378.22;8394542;28;20227;-64
2021/05/01 11:36:46;;;;;;;14.40;12.90;;;;;;;16.74;41.56;97383.09;8395747;28;20604;-64
2021/05/01 11:40:53;;;;;;;13.17;11.90;;;;;;;17.29;42.41;97370.03;8396920;28;20194;-64
2021/05/01 11:44:56;;;;;;;13.13;11.93;;;;;;;17.16;42.38;97370.19;8401045;28;20563;-64
2021/05/01 11:49:05;;;;;;;13.17;11.97;;;;;;;17.22;42.67;97365.44;8399714;28;20575;-64
2021/05/01 11:53:23;;;;;;;14.87;13.47;;;;;;;16.40;44.13;97361.38;8400906;28;20587;-64
2021/05/01 11:57:33;;;;;;;15.03;13.57;;;;;;;16.32;44.21;97369.00;8401031;28;20195;-64
2021/05/01 12:01:42;;;;;;;14.30;12.90;;;;;;;16.69;44.02;97359.09;8400831;28;20589;-64
2021/05/01 12:05:44;;;;;;;15.63;14.13;;;;;;;16.31;44.84;97356.88;8400431;28;20610;-64
2021/05/01 12:09:48;;;;;;;15.20;13.70;;;;;;;16.42;45.28;97349.84;8399361;28;20227;-62
2021/05/01 12:13:52;;;;;;;16.17;14.60;;;;;;;16.08;45.40;97342.97;8399955;28;20658;-61
2021/05/01 12:17:54;;;;;;;17.10;15.50;;;;;;;16.14;45.28;97347.72;8398746;28;20651;-62
2021/05/01 12:21:57;;;;;;;16.20;14.70;;;;;;;16.38;46.49;97347.59;8398870;28;20207;-61
2021/05/01 12:25:59;;;;;;;14.63;13.23;;;;;;;16.59;44.79;97335.47;8398329;28;20210;-61
2021/05/01 12:30:02;;;;;;;14.97;13.57;;;;;;;16.72;44.48;97335.34;8398604;28;20551;-62
2021/05/01 12:34:03;;;;;;;15.37;13.27;;;;;;;16.60;44.94;97336.28;8400060;28;20242;-61
2021/05/01 12:38:06;;;;;;;13.90;12.60;;;;;;;16.68;44.40;97325.22;8398681;28;20240;-62
2021/05/01 12:42:18;;;;;;;13.60;12.40;;;;;;;16.59;44.81;97326.78;8398419;28;20502;-62
2021/05/01 12:46:43;;;;;;;14.77;13.10;;;;;;;16.65;44.70;97328.09;8398765;28;20527;-62
2021/05/01 12:51:11;;;;;;;15.37;13.77;;;;;;;16.57;43.97;97341.78;8388010;28;20234;-62
2021/05/01 12:55:14;;;;;;;13.77;12.50;;;;;;;16.57;44.52;97332.16;8398437;28;20591;-63
2021/05/01 12:59:27;;;;;;;13.87;12.60;;;;;;;16.54;45.55;97334.97;8397716;28;20215;-62
2021/05/01 13:03:30;;;;;;;14.73;13.30;;;;;;;16.53;44.30;97337.75;8397256;28;20199;-62
2021/05/01 13:07:32;;;;;;;12.93;11.80;;;;;;;16.37;44.54;97327.63;8398766;28;20654;-62
2021/05/01 13:11:34;;;;;;;14.33;13.03;;;;;;;16.51;44.58;97319.56;8397540;28;20260;-62
2021/05/01 13:15:59;;;;;;;13.87;12.57;;;;;;;16.27;44.24;97306.63;8398537;28;20671;-61
2021/05/01 13:20:17;;;;;;;12.57;11.47;;;;;;;16.47;44.82;97296.38;8397068;28;20207;-62
2021/05/01 13:24:19;;;;;;;12.83;11.67;;;;;;;16.76;45.46;97281.84;8396309;28;20187;-62
2021/05/01 13:28:21;;;;;;;13.20;12.10;;;;;;;16.88;45.44;97295.72;8396222;28;20214;-61
2021/05/01 13:32:23;;;;;;;14.17;12.20;;;;;;;16.96;45.19;97293.34;8397228;28;20231;-61
2021/05/01 13:36:26;;;;;;;13.57;12.37;;;;;;;17.10;45.07;97291.41;8396689;28;20209;-61
2021/05/01 13:40:30;;;;;;;13.53;12.13;;;;;;;17.06;45.07;97287.34;8396693;28;20298;-62
2021/05/01 13:44:40;;;;;;;13.33;12.03;;;;;;;17.30;43.52;97279.28;8396021;28;20206;-62
2021/05/01 13:48:43;;;;;;;13.13;11.83;;;;;;;17.19;44.29;97288.84;8395997;28;20318;-62
2021/05/01 13:52:47;;;;;;;12.50;11.40;;;;;;;17.03;44.72;97295.47;8395788;28;20659;-62
2021/05/01 13:56:49;;;;;;;13.33;12.13;;;;;;;16.87;45.63;97280.16;8394850;28;20199;-62
2021/05/01 14:00:52;;;;;;;18.43;12.93;;;;;;;16.80;43.87;97282.44;8395621;28;20203;-62
2021/05/01 14:04:55;;;;;;;16.70;11.53;;;;;;;16.96;44.74;97282.88;8395088;28;20242;-62
2021/05/01 14:09:02;;;;;;;17.23;11.83;;;;;;;16.95;44.94;97277.78;8395339;28;20227;-62
2021/05/01 14:13:13;;;;;;;12.27;11.17;;;;;;;16.73;45.58;97276.84;8395999;28;20243;-62
2021/05/01 14:17:15;;;;;;;38.17;11.90;;;;;;;16.87;44.78;97278.41;8396465;28;20654;-61
2021/05/01 14:21:25;;;;;;;13.10;11.70;;;;;;;16.71;45.27;97270.09;8394830;28;20290;-59
2021/05/01 14:25:29;;;;;;;12.63;11.37;;;;;;;16.77;44.85;97269.59;8395719;28;20270;-59
2021/05/01 14:29:30;;;;;;;12.27;11.10;;;;;;;16.71;45.12;97272.69;8395095;28;20222;-60
2021/05/01 14:33:34;;;;;;;12.47;10.93;;;;;;;16.64;44.33;97263.69;8395392;28;20243;-60
2021/05/01 14:37:38;;;;;;;38.73;12.53;;;;;;;16.46;45.45;97251.13;8396299;28;20290;-60
2021/05/01 14:41:41;;;;;;;12.73;11.63;;;;;;;16.31;45.57;97250.56;8394538;28;20199;-60
2021/05/01 14:45:43;;;;;;;12.90;11.70;;;;;;;16.31;45.25;97247.94;8394598;28;20210;-60
2021/05/01 14:49:45;;;;;;;12.87;11.67;;;;;;;16.02;45.65;97238.00;8395219;28;20234;-60
2021/05/01 14:53:47;;;;;;;15.27;12.33;;;;;;;16.05;46.44;97236.13;8394731;28;20222;-59
2021/05/01 14:57:50;;;;;;;13.77;12.57;;;;;;;16.09;47.85;97247.97;8394920;28;20214;-73
2021/05/01 15:02:07;;;;;;;17.10;12.20;;;;;;;16.18;48.31;97240.28;8393912;28;20199;-60
2021/05/01 15:06:09;;;;;;;14.00;12.60;;;;;;;16.08;49.99;97244.53;8395492;28;20196;-60
2021/05/01 15:10:30;;;;;;;14.63;13.13;;;;;;;15.81;49.26;97232.69;8394511;28;20211;-60
2021/05/01 15:14:32;;;;;;;12.70;11.50;;;;;;;15.89;49.36;97234.69;8393864;28;20223;-60
2021/05/01 15:18:35;;;;;;;12.93;11.73;;;;;;;15.89;50.50;97233.88;8402228;28;20210;-59
2021/05/01 15:22:37;;;;;;;12.93;11.70;;;;;;;15.48;52.20;97241.28;8401179;28;20218;-64
2021/05/01 15:26:38;;;;;;;13.80;12.50;;;;;;;15.59;52.72;97243.06;8401831;28;20222;-65
2021/05/01 15:30:42;;;;;;;14.70;13.30;;;;;;;15.60;53.55;97229.91;8400395;28;20223;-65
2021/05/01 15:34:45;;;;;;;13.00;11.87;;;;;;;15.44;53.74;97232.03;8398483;28;20207;-60
2021/05/01 15:38:47;;;;;;;13.57;12.17;;;;;;;15.51;53.66;97225.38;8401015;28;20211;-61
2021/05/01 15:42:49;;;;;;;13.23;12.10;;;;;;;15.60;53.97;97229.91;8398983;28;20218;-63
2021/05/01 15:46:52;;;;;;;12.47;11.30;;;;;;;15.43;55.37;97212.94;8400123;28;20203;-65
2021/05/01 15:50:54;;;;;;;11.47;10.40;;;;;;;15.68;53.70;97210.22;8401599;28;20210;-66
2021/05/01 15:54:56;;;;;;;12.57;11.37;;;;;;;15.48;54.49;97206.53;8398908;28;20215;-66
2021/05/01 15:58:58;;;;;;;11.77;10.70;;;;;;;15.54;52.76;97196.47;8400981;28;20210;-66
2021/05/01 16:03:01;;;;;;;12.83;11.73;;;;;;;15.58;52.24;97192.66;8401194;28;20582;-62
2021/05/01 16:07:03;;;;;;;10.73;9.70;;;;;;;15.28;52.62;97195.84;8400012;28;20209;-62
2021/05/01 16:11:06;;;;;;;9.77;8.77;;;;;;;15.34;52.68;97192.75;8401340;28;20222;-62
2021/05/01 16:15:09;;;;;;;10.30;9.40;;;;;;;15.27;52.63;97195.94;8400439;28;20277;-62
2021/05/01 16:19:14;;;;;;;9.30;8.40;;;;;;;15.24;52.62;97186.59;8400276;28;20566;-63
2021/05/01 16:23:16;;;;;;;11.60;9.43;;;;;;;15.18;54.02;97193.09;8380943;28;20196;-62
2021/05/01 16:27:18;;;;;;;9.40;8.27;;;;;;;15.16;54.43;97186.34;8385447;28;20223;-62
2021/05/01 16:31:20;;;;;;;22.93;14.77;;;;;;;15.02;54.45;97184.75;8398196;28;20674;-62
2021/05/01 16:35:23;;;;;;;20.50;11.77;;;;;;;15.02;55.29;97176.94;8398841;28;20199;-62
2021/05/01 16:39:25;;;;;;;13.47;7.70;;;;;;;14.90;55.08;97168.25;8395886;28;20215;-63
2021/05/01 16:43:27;;;;;;;9.00;8.10;;;;;;;14.86;55.59;97166.81;8377529;28;20251;-62
2021/05/01 16:47:29;;;;;;;9.57;8.70;;;;;;;14.90;55.69;97157.00;8397959;28;20256;-62
2021/05/01 16:51:32;;;;;;;17.63;15.40;;;;;;;14.91;55.51;97162.09;8397629;28;20234;-62
2021/05/01 16:55:34;;;;;;;8.33;7.47;;;;;;;14.71;55.83;97160.16;8397626;28;20207;-62
2021/05/01 16:59:36;;;;;;;8.30;7.57;;;;;;;14.71;55.91;97160.97;8380870;28;20643;-63
2021/05/01 17:03:38;;;;;;;8.90;7.17;;;;;;;14.58;56.47;97162.81;8396553;28;20210;-63
2021/05/01 17:07:41;;;;;;;10.27;7.73;;;;;;;14.52;57.15;97165.84;8398384;28;20227;-62
2021/05/01 17:11:43;;;;;;;9.73;8.87;;;;;;;14.49;57.33;97166.91;8398900;28;20222;-62
2021/05/01 17:15:45;;;;;;;9.30;8.40;;;;;;;14.39;57.91;97164.16;8399158;28;20695;-62
2021/05/01 17:19:47;;;;;;;8.57;7.77;;;;;;;14.35;57.76;97167.88;8397992;28;20206;-62
2021/05/01 17:23:50;;;;;;;7.53;6.83;;;;;;;14.24;57.98;97179.09;8397856;28;20198;-62
2021/05/01 17:27:52;;;;;;;7.70;7.00;;;;;;;14.21;57.72;97179.31;8398084;28;20682;-62
2021/05/01 17:31:53;;;;;;;9.43;6.90;;;;;;;14.34;58.10;97181.88;8398971;28;20238;-62
2021/05/01 17:35:55;;;;;;;8.00;7.20;;;;;;;14.26;58.50;97192.84;8398071;28;20231;-62
2021/05/01 17:39:58;;;;;;;8.67;7.67;;;;;;;14.28;58.56;97198.78;8397737;28;20210;-62
2021/05/01 17:44:00;;;;;;;7.57;6.87;;;;;;;14.32;58.25;97199.38;8397816;28;20213;-62
2021/05/01 17:48:02;;;;;;;7.97;7.27;;;;;;;14.24;58.92;97206.88;8398157;28;20227;-63
2021/05/01 17:52:04;;;;;;;8.10;7.30;;;;;;;14.31;58.81;97212.50;8397116;28;20214;-62
2021/05/01 17:56:08;;;;;;;9.13;7.40;;;;;;;14.30;59.14;97210.84;8397068;28;20225;-63
2021/05/01 18:00:13;;;;;;;13.13;11.77;;;;;;;14.25;59.51;97214.59;8398328;28;20206;-63
2021/05/01 18:04:15;;;;;;;17.67;16.00;;;;;;;14.13;59.85;97223.28;8397733;28;20199;-62
2021/05/01 18:08:17;;;;;;;9.43;8.53;;;;;;;14.15;60.02;97229.22;8398210;28;20708;-62
2021/05/01 18:12:20;;;;;;;9.30;8.40;;;;;;;14.09;59.72;97224.44;8397244;28;20230;-62
2021/05/01 18:16:22;;;;;;;9.53;8.40;;;;;;;14.09;60.23;97221.84;8396609;28;20218;-62
2021/05/01 18:20:24;;;;;;;9.47;8.67;;;;;;;14.00;60.59;97219.88;8395474;28;20210;-62
2021/05/01 18:24:26;;;;;;;9.00;8.20;;;;;;;14.06;60.68;97220.28;8398858;28;20207;-62
2021/05/01 18:28:29;;;;;;;9.50;7.93;;;;;;;14.06;60.47;97222.06;8395916;28;20226;-62
2021/05/01 18:32:31;;;;;;;8.80;8.00;;;;;;;14.03;60.76;97223.13;8395952;28;20222;-62
2021/05/01 18:36:33;;;;;;;8.23;7.40;;;;;;;13.98;60.98;97217.38;8396656;28;20223;-62
2021/05/01 18:40:35;;;;;;;8.10;7.33;;;;;;;13.81;60.99;97218.56;8395971;28;20207;-62
2021/05/01 18:44:38;;;;;;;7.37;6.73;;;;;;;13.76;60.62;97218.03;8395842;28;20210;-62